sensor_id;sensor_type;location;lat;lon;timestamp;pressure;altitude;pressure_sealevel;temperature;humidity
47280;BME280;34064;44.942;0.008;2024-02-14T00:00:12;99569.72;;;10.55;65.12
47280;BME280;34064;44.942;0.008;2024-02-14T00:02:44;99578.75;;;10.53;65.08
47280;BME280;34064;44.942;0.008;2024-02-14T00:05:11;99573.63;;;10.50;65.12
47280;BME280;34064;44.942;0.008;2024-02-14T00:07:38;99578.09;;;10.49;64.88
47280;BME280;34064;44.942;0.008;2024-02-14T00:10:06;99589.13;;;10.43;65.25
47280;BME280;34064;44.942;0.008;2024-02-14T00:12:36;99595.38;;;10.42;64.96
47280;BME280;34064;44.942;0.008;2024-02-14T00:15:06;99603.53;;;10.39;64.98
47280;BME280;34064;44.942;0.008;2024-02-14T00:17:34;99603.69;;;10.36;64.96
47280;BME280;34064;44.942;0.008;2024-02-14T00:20:01;99616.25;;;10.34;64.89
47280;BME280;34064;44.942;0.008;2024-02-14T00:22:27;99609.22;;;10.33;64.88
47280;BME280;34064;44.942;0.008;2024-02-14T00:24:54;99618.13;;;10.32;64.87
47280;BME280;34064;44.942;0.008;2024-02-14T00:27:20;99603.31;;;10.27;65.17
47280;BME280;34064;44.942;0.008;2024-02-14T00:29:46;99609.56;;;10.26;65.03
47280;BME280;34064;44.942;0.008;2024-02-14T00:32:13;99604.66;;;10.20;64.83
47280;BME280;34064;44.942;0.008;2024-02-14T00:34:40;99599.34;;;10.20;65.16
47280;BME280;34064;44.942;0.008;2024-02-14T00:37:06;99603.13;;;10.16;65.19
47280;BME280;34064;44.942;0.008;2024-02-14T00:39:33;99603.34;;;10.13;65.18
47280;BME280;34064;44.942;0.008;2024-02-14T00:41:59;99610.53;;;10.11;65.01
47280;BME280;34064;44.942;0.008;2024-02-14T00:44:25;99602.69;;;10.09;65.06
47280;BME280;34064;44.942;0.008;2024-02-14T00:46:57;99600.97;;;10.08;65.02
47280;BME280;34064;44.942;0.008;2024-02-14T00:49:25;99602.03;;;10.06;65.05
47280;BME280;34064;44.942;0.008;2024-02-14T00:51:52;99603.81;;;10.05;64.93
47280;BME280;34064;44.942;0.008;2024-02-14T00:54:18;99587.88;;;10.05;65.12
47280;BME280;34064;44.942;0.008;2024-02-14T00:56:44;99590.72;;;10.02;65.00
47280;BME280;34064;44.942;0.008;2024-02-14T00:59:11;99600.66;;;9.98;65.22
47280;BME280;34064;44.942;0.008;2024-02-14T01:01:38;99592.91;;;9.95;65.13
47280;BME280;34064;44.942;0.008;2024-02-14T01:04:04;99600.13;;;9.93;65.13
47280;BME280;34064;44.942;0.008;2024-02-14T01:06:31;99600.22;;;9.92;65.14
47280;BME280;34064;44.942;0.008;2024-02-14T01:08:57;99604.00;;;9.88;65.23
47280;BME280;34064;44.942;0.008;2024-02-14T01:11:23;99597.81;;;9.87;64.97
47280;BME280;34064;44.942;0.008;2024-02-14T01:13:50;99589.97;;;9.86;65.27
47280;BME280;34064;44.942;0.008;2024-02-14T01:16:16;99594.50;;;9.83;65.20
47280;BME280;34064;44.942;0.008;2024-02-14T01:18:42;99580.38;;;9.83;65.50
47280;BME280;34064;44.942;0.008;2024-02-14T01:21:09;99588.47;;;9.81;65.32
47280;BME280;34064;44.942;0.008;2024-02-14T01:23:35;99601.13;;;9.76;65.68
47280;BME280;34064;44.942;0.008;2024-02-14T01:26:02;99598.59;;;9.75;65.79
47280;BME280;34064;44.942;0.008;2024-02-14T01:28:28;99607.38;;;9.75;65.49
47280;BME280;34064;44.942;0.008;2024-02-14T01:30:54;99602.94;;;9.76;65.40
47280;BME280;34064;44.942;0.008;2024-02-14T01:33:23;99598.66;;;9.73;65.60
47280;BME280;34064;44.942;0.008;2024-02-14T01:35:49;99592.41;;;9.74;65.36
47280;BME280;34064;44.942;0.008;2024-02-14T01:38:15;99595.81;;;9.76;65.55
47280;BME280;34064;44.942;0.008;2024-02-14T01:40:46;99600.47;;;9.73;65.79
47280;BME280;34064;44.942;0.008;2024-02-14T01:43:13;99609.53;;;9.68;65.71
47280;BME280;34064;44.942;0.008;2024-02-14T01:45:40;99607.09;;;9.65;65.64
47280;BME280;34064;44.942;0.008;2024-02-14T01:48:07;99591.19;;;9.65;65.49
47280;BME280;34064;44.942;0.008;2024-02-14T01:50:35;99593.84;;;9.65;65.39
47280;BME280;34064;44.942;0.008;2024-02-14T01:53:02;99590.31;;;9.65;65.27
47280;BME280;34064;44.942;0.008;2024-02-14T01:55:30;99586.81;;;9.64;65.56
47280;BME280;34064;44.942;0.008;2024-02-14T01:57:56;99584.06;;;9.66;65.47
47280;BME280;34064;44.942;0.008;2024-02-14T02:00:23;99583.22;;;9.65;65.63
47280;BME280;34064;44.942;0.008;2024-02-14T02:02:49;99588.53;;;9.65;65.68
47280;BME280;34064;44.942;0.008;2024-02-14T02:05:16;99593.91;;;9.64;65.82
47280;BME280;34064;44.942;0.008;2024-02-14T02:07:43;99595.72;;;9.63;65.50
47280;BME280;34064;44.942;0.008;2024-02-14T02:10:12;99586.06;;;9.62;65.68
47280;BME280;34064;44.942;0.008;2024-02-14T02:12:38;99589.47;;;9.64;65.51
47280;BME280;34064;44.942;0.008;2024-02-14T02:15:06;99586.06;;;9.62;65.36
47280;BME280;34064;44.942;0.008;2024-02-14T02:17:33;99588.69;;;9.62;65.61
47280;BME280;34064;44.942;0.008;2024-02-14T02:20:00;99580.63;;;9.64;65.52
47280;BME280;34064;44.942;0.008;2024-02-14T02:22:27;99570.91;;;9.64;65.52
47280;BME280;34064;44.942;0.008;2024-02-14T02:24:58;99576.22;;;9.64;65.67
47280;BME280;34064;44.942;0.008;2024-02-14T02:27:25;99573.66;;;9.63;65.63
47280;BME280;34064;44.942;0.008;2024-02-14T02:29:51;99574.50;;;9.63;65.57
47280;BME280;34064;44.942;0.008;2024-02-14T02:32:18;99569.19;;;9.63;65.62
47280;BME280;34064;44.942;0.008;2024-02-14T02:34:44;99572.78;;;9.62;65.67
47280;BME280;34064;44.942;0.008;2024-02-14T02:37:12;99585.50;;;9.57;65.72
47280;BME280;34064;44.942;0.008;2024-02-14T02:39:38;99583.66;;;9.58;65.41
47280;BME280;34064;44.942;0.008;2024-02-14T02:42:05;99579.31;;;9.57;65.69
47280;BME280;34064;44.942;0.008;2024-02-14T02:44:32;99566.91;;;9.57;65.60
47280;BME280;34064;44.942;0.008;2024-02-14T02:46:58;99571.34;;;9.57;65.58
47280;BME280;34064;44.942;0.008;2024-02-14T02:49:26;99566.91;;;9.57;65.40
47280;BME280;34064;44.942;0.008;2024-02-14T02:51:53;99560.84;;;9.55;65.52
47280;BME280;34064;44.942;0.008;2024-02-14T02:54:19;99549.47;;;9.53;65.61
47280;BME280;34064;44.942;0.008;2024-02-14T02:56:46;99545.09;;;9.52;65.58
47280;BME280;34064;44.942;0.008;2024-02-14T02:59:13;99559.31;;;9.51;65.51
47280;BME280;34064;44.942;0.008;2024-02-14T03:01:39;99561.97;;;9.51;65.73
47280;BME280;34064;44.942;0.008;2024-02-14T03:04:06;99553.06;;;9.52;65.65
47280;BME280;34064;44.942;0.008;2024-02-14T03:06:34;99549.47;;;9.53;65.83
47280;BME280;34064;44.942;0.008;2024-02-14T03:09:00;99560.06;;;9.53;66.03
47280;BME280;34064;44.942;0.008;2024-02-14T03:11:28;99566.53;;;9.49;66.06
47280;BME280;34064;44.942;0.008;2024-02-14T03:13:54;99565.00;;;9.45;65.96
47280;BME280;34064;44.942;0.008;2024-02-14T03:16:21;99580.06;;;9.44;65.85
47280;BME280;34064;44.942;0.008;2024-02-14T03:18:47;99575.78;;;9.42;65.82
47280;BME280;34064;44.942;0.008;2024-02-14T03:21:14;99570.47;;;9.42;65.88
47280;BME280;34064;44.942;0.008;2024-02-14T03:23:40;99581.06;;;9.42;66.04
47280;BME280;34064;44.942;0.008;2024-02-14T03:26:07;99584.59;;;9.42;65.99
47280;BME280;34064;44.942;0.008;2024-02-14T03:28:35;99582.78;;;9.43;65.89
47280;BME280;34064;44.942;0.008;2024-02-14T03:31:01;99581.06;;;9.42;65.58
47280;BME280;34064;44.942;0.008;2024-02-14T03:33:27;99579.56;;;9.38;65.84
47280;BME280;34064;44.942;0.008;2024-02-14T03:35:55;99597.38;;;9.35;66.05
47280;BME280;34064;44.942;0.008;2024-02-14T03:38:30;99583.34;;;9.33;65.95
47280;BME280;34064;44.942;0.008;2024-02-14T03:40:57;99580.69;;;9.33;65.90
47280;BME280;34064;44.942;0.008;2024-02-14T03:43:23;99586.94;;;9.32;65.80
47280;BME280;34064;44.942;0.008;2024-02-14T03:45:50;99589.84;;;9.28;66.37
47280;BME280;34064;44.942;0.008;2024-02-14T03:48:20;99592.44;;;9.29;66.02
47280;BME280;34064;44.942;0.008;2024-02-14T03:50:47;99576.53;;;9.29;65.86
47280;BME280;34064;44.942;0.008;2024-02-14T03:53:14;99575.59;;;9.30;65.84
47280;BME280;34064;44.942;0.008;2024-02-14T03:55:41;99587.28;;;9.26;65.93
47280;BME280;34064;44.942;0.008;2024-02-14T03:58:07;99592.97;;;9.20;66.17
47280;BME280;34064;44.942;0.008;2024-02-14T04:00:35;99593.91;;;9.19;66.07
47280;BME280;34064;44.942;0.008;2024-02-14T04:03:02;99591.25;;;9.19;65.95
47280;BME280;34064;44.942;0.008;2024-02-14T04:05:29;99599.22;;;9.19;65.85
47280;BME280;34064;44.942;0.008;2024-02-14T04:07:55;99600.16;;;9.18;65.64
47280;BME280;34064;44.942;0.008;2024-02-14T04:10:22;99596.72;;;9.16;65.63
47280;BME280;34064;44.942;0.008;2024-02-14T04:12:48;99607.34;;;9.16;65.80
47280;BME280;34064;44.942;0.008;2024-02-14T04:15:14;99609.16;;;9.15;65.58
47280;BME280;34064;44.942;0.008;2024-02-14T04:17:41;99598.59;;;9.14;65.88
47280;BME280;34064;44.942;0.008;2024-02-14T04:20:08;99600.31;;;9.15;65.85
47280;BME280;34064;44.942;0.008;2024-02-14T04:22:34;99594.19;;;9.14;65.90
47280;BME280;34064;44.942;0.008;2024-02-14T04:25:01;99604.78;;;9.14;65.86
47280;BME280;34064;44.942;0.008;2024-02-14T04:27:28;99610.41;;;9.08;65.92
47280;BME280;34064;44.942;0.008;2024-02-14T04:29:54;99606.16;;;9.05;65.85
47280;BME280;34064;44.942;0.008;2024-02-14T04:32:21;99610.78;;;9.02;65.85
47280;BME280;34064;44.942;0.008;2024-02-14T04:34:47;99613.53;;;9.00;65.67
47280;BME280;34064;44.942;0.008;2024-02-14T04:37:14;99612.66;;;9.00;65.81
47280;BME280;34064;44.942;0.008;2024-02-14T04:39:41;99619.00;;;8.97;65.75
47280;BME280;34064;44.942;0.008;2024-02-14T04:42:08;99607.56;;;8.97;65.79
47280;BME280;34064;44.942;0.008;2024-02-14T04:44:34;99611.97;;;8.96;65.58
47280;BME280;34064;44.942;0.008;2024-02-14T04:47:01;99614.63;;;8.96;65.64
47280;BME280;34064;44.942;0.008;2024-02-14T04:49:27;99609.34;;;8.96;65.71
47280;BME280;34064;44.942;0.008;2024-02-14T04:51:55;99606.69;;;8.96;65.62
47280;BME280;34064;44.942;0.008;2024-02-14T04:54:22;99613.69;;;8.97;65.66
47280;BME280;34064;44.942;0.008;2024-02-14T04:56:48;99617.28;;;8.96;65.68
47280;BME280;34064;44.942;0.008;2024-02-14T04:59:14;99614.72;;;8.95;65.60
47280;BME280;34064;44.942;0.008;2024-02-14T05:01:41;99621.91;;;8.93;65.70
47280;BME280;34064;44.942;0.008;2024-02-14T05:04:07;99619.34;;;8.91;65.53
47280;BME280;34064;44.942;0.008;2024-02-14T05:06:33;99619.50;;;8.88;65.55
47280;BME280;34064;44.942;0.008;2024-02-14T05:09:00;99617.81;;;8.87;65.52
47280;BME280;34064;44.942;0.008;2024-02-14T05:11:26;99609.84;;;8.87;65.75
47280;BME280;34064;44.942;0.008;2024-02-14T05:13:53;99612.50;;;8.87;65.57
47280;BME280;34064;44.942;0.008;2024-02-14T05:16:19;99616.09;;;8.86;65.52
47280;BME280;34064;44.942;0.008;2024-02-14T05:18:46;99614.38;;;8.85;65.63
47280;BME280;34064;44.942;0.008;2024-02-14T05:21:14;99616.28;;;8.83;65.63
47280;BME280;34064;44.942;0.008;2024-02-14T05:23:40;99612.88;;;8.81;65.71
47280;BME280;34064;44.942;0.008;2024-02-14T05:26:07;99613.03;;;8.78;65.63
47280;BME280;34064;44.942;0.008;2024-02-14T05:28:33;99613.19;;;8.74;65.65
47280;BME280;34064;44.942;0.008;2024-02-14T05:31:03;99613.38;;;8.71;65.42
47280;BME280;34064;44.942;0.008;2024-02-14T05:33:29;99620.56;;;8.69;65.57
47280;BME280;34064;44.942;0.008;2024-02-14T05:35:55;99620.72;;;8.66;65.49
47280;BME280;34064;44.942;0.008;2024-02-14T05:38:22;99627.91;;;8.64;65.71
47280;BME280;34064;44.942;0.008;2024-02-14T05:40:49;99630.63;;;8.63;65.67
47280;BME280;34064;44.942;0.008;2024-02-14T05:43:16;99625.34;;;8.63;65.70
47280;BME280;34064;44.942;0.008;2024-02-14T05:45:44;99623.81;;;8.58;65.49
47280;BME280;34064;44.942;0.008;2024-02-14T05:48:10;99627.47;;;8.56;65.40
47280;BME280;34064;44.942;0.008;2024-02-14T05:50:37;99634.72;;;8.52;65.48
47280;BME280;34064;44.942;0.008;2024-02-14T05:53:03;99632.16;;;8.51;65.52
47280;BME280;34064;44.942;0.008;2024-02-14T05:55:30;99637.63;;;8.48;65.44
47280;BME280;34064;44.942;0.008;2024-02-14T05:57:56;99641.16;;;8.47;65.61
47280;BME280;34064;44.942;0.008;2024-02-14T06:00:25;99650.03;;;8.46;65.57
47280;BME280;34064;44.942;0.008;2024-02-14T06:02:51;99649.22;;;8.45;65.63
47280;BME280;34064;44.942;0.008;2024-02-14T06:05:17;99645.78;;;8.43;65.49
47280;BME280;34064;44.942;0.008;2024-02-14T06:07:44;99644.31;;;8.37;65.65
47280;BME280;34064;44.942;0.008;2024-02-14T06:10:11;99646.97;;;8.37;65.65
47280;BME280;34064;44.942;0.008;2024-02-14T06:12:38;99642.53;;;8.38;65.65
47280;BME280;34064;44.942;0.008;2024-02-14T06:15:07;99642.53;;;8.38;65.78
47280;BME280;34064;44.942;0.008;2024-02-14T06:17:34;99646.13;;;8.37;65.79
47280;BME280;34064;44.942;0.008;2024-02-14T06:20:00;99636.47;;;8.36;65.58
47280;BME280;34064;44.942;0.008;2024-02-14T06:22:31;99633.91;;;8.34;65.67
47280;BME280;34064;44.942;0.008;2024-02-14T06:24:59;99638.44;;;8.32;65.84
47280;BME280;34064;44.942;0.008;2024-02-14T06:27:25;99647.31;;;8.31;65.49
47280;BME280;34064;44.942;0.008;2024-02-14T06:29:52;99643.88;;;8.29;65.85
47280;BME280;34064;44.942;0.008;2024-02-14T06:32:19;99642.00;;;8.31;65.82
47280;BME280;34064;44.942;0.008;2024-02-14T06:34:45;99639.38;;;8.31;65.56
47280;BME280;34064;44.942;0.008;2024-02-14T06:37:12;99638.44;;;8.32;65.66
47280;BME280;34064;44.942;0.008;2024-02-14T06:39:38;99640.16;;;8.33;65.69
47280;BME280;34064;44.942;0.008;2024-02-14T06:42:05;99638.34;;;8.34;65.55
47280;BME280;34064;44.942;0.008;2024-02-14T06:44:31;99633.13;;;8.32;65.79
47280;BME280;34064;44.942;0.008;2024-02-14T06:46:57;99633.13;;;8.32;65.57
47280;BME280;34064;44.942;0.008;2024-02-14T06:49:23;99636.72;;;8.31;65.53
47280;BME280;34064;44.942;0.008;2024-02-14T06:51:50;99629.63;;;8.32;65.66
47280;BME280;34064;44.942;0.008;2024-02-14T06:54:16;99635.16;;;8.27;65.73
47280;BME280;34064;44.942;0.008;2024-02-14T06:56:45;99641.56;;;8.23;65.78
47280;BME280;34064;44.942;0.008;2024-02-14T06:59:11;99645.06;;;8.23;65.67
47280;BME280;34064;44.942;0.008;2024-02-14T07:01:38;99645.06;;;8.23;65.62
47280;BME280;34064;44.942;0.008;2024-02-14T07:04:04;99648.81;;;8.19;65.94
47280;BME280;34064;44.942;0.008;2024-02-14T07:06:31;99647.66;;;8.25;65.78
47280;BME280;34064;44.942;0.008;2024-02-14T07:08:57;99652.00;;;8.26;65.64
47280;BME280;34064;44.942;0.008;2024-02-14T07:11:23;99653.78;;;8.25;65.56
47280;BME280;34064;44.942;0.008;2024-02-14T07:13:50;99660.09;;;8.23;65.59
47280;BME280;34064;44.942;0.008;2024-02-14T07:16:16;99660.09;;;8.23;65.62
47280;BME280;34064;44.942;0.008;2024-02-14T07:18:43;99664.63;;;8.21;65.59
47280;BME280;34064;44.942;0.008;2024-02-14T07:21:10;99671.72;;;8.20;65.43
47280;BME280;34064;44.942;0.008;2024-02-14T07:23:37;99666.47;;;8.19;65.57
47280;BME280;34064;44.942;0.008;2024-02-14T07:26:03;99672.72;;;8.18;65.57
47280;BME280;34064;44.942;0.008;2024-02-14T07:28:30;99671.03;;;8.17;65.82
47280;BME280;34064;44.942;0.008;2024-02-14T07:30:56;99658.63;;;8.17;65.73
47280;BME280;34064;44.942;0.008;2024-02-14T07:33:22;99661.81;;;8.24;65.64
47280;BME280;34064;44.942;0.008;2024-02-14T07:35:49;99658.97;;;8.27;65.54
47280;BME280;34064;44.942;0.008;2024-02-14T07:38:16;99658.06;;;8.28;65.69
47280;BME280;34064;44.942;0.008;2024-02-14T07:40:43;99667.66;;;8.31;65.70
47280;BME280;34064;44.942;0.008;2024-02-14T07:43:10;99663.19;;;8.31;65.60
47280;BME280;34064;44.942;0.008;2024-02-14T07:45:36;99671.03;;;8.33;65.51
47280;BME280;34064;44.942;0.008;2024-02-14T07:48:03;99665.75;;;8.33;65.56
47280;BME280;34064;44.942;0.008;2024-02-14T07:50:29;99668.16;;;8.37;65.34
47280;BME280;34064;44.942;0.008;2024-02-14T07:52:56;99668.00;;;8.40;65.34
47280;BME280;34064;44.942;0.008;2024-02-14T07:55:23;99666.91;;;8.45;65.24
47280;BME280;34064;44.942;0.008;2024-02-14T07:57:50;99672.94;;;8.47;65.50
47280;BME280;34064;44.942;0.008;2024-02-14T08:00:16;99664.88;;;8.50;65.41
47280;BME280;34064;44.942;0.008;2024-02-14T08:02:49;99673.41;;;8.55;65.33
47280;BME280;34064;44.942;0.008;2024-02-14T08:05:15;99676.78;;;8.58;65.35
47280;BME280;34064;44.942;0.008;2024-02-14T08:07:42;99671.22;;;8.63;65.06
47280;BME280;34064;44.942;0.008;2024-02-14T08:10:09;99677.13;;;8.68;65.26
47280;BME280;34064;44.942;0.008;2024-02-14T08:12:35;99678.66;;;8.72;65.30
47280;BME280;34064;44.942;0.008;2024-02-14T08:15:02;99678.47;;;8.76;65.24
47280;BME280;34064;44.942;0.008;2024-02-14T08:17:31;99670.22;;;8.82;65.26
47280;BME280;34064;44.942;0.008;2024-02-14T08:19:57;99679.63;;;8.87;65.13
47280;BME280;34064;44.942;0.008;2024-02-14T08:22:23;99674.22;;;8.89;65.60
47280;BME280;34064;44.942;0.008;2024-02-14T08:24:50;99669.59;;;8.93;65.61
47280;BME280;34064;44.942;0.008;2024-02-14T08:27:16;99673.72;;;8.98;65.55
47280;BME280;34064;44.942;0.008;2024-02-14T08:29:42;99663.53;;;9.07;65.44
47280;BME280;34064;44.942;0.008;2024-02-14T08:32:09;99668.31;;;9.16;65.62
47280;BME280;34064;44.942;0.008;2024-02-14T08:34:35;99656.22;;;9.26;65.66
47280;BME280;34064;44.942;0.008;2024-02-14T08:37:01;99655.69;;;9.35;65.98
47280;BME280;34064;44.942;0.008;2024-02-14T08:39:27;99639.66;;;9.53;65.74
47280;BME280;34064;44.942;0.008;2024-02-14T08:41:55;99637.22;;;9.64;66.03
47280;BME280;34064;44.942;0.008;2024-02-14T08:44:21;99641.03;;;9.75;66.25
47280;BME280;34064;44.942;0.008;2024-02-14T08:46:47;99632.13;;;9.90;65.99
47280;BME280;34064;44.942;0.008;2024-02-14T08:49:16;99618.97;;;10.03;66.20
47280;BME280;34064;44.942;0.008;2024-02-14T08:51:43;99622.09;;;10.10;66.38
47280;BME280;34064;44.942;0.008;2024-02-14T08:54:12;99618.69;;;10.22;66.22
47280;BME280;34064;44.942;0.008;2024-02-14T08:56:38;99611.75;;;10.34;66.20
47280;BME280;34064;44.942;0.008;2024-02-14T08:59:04;99611.88;;;10.47;66.27
47280;BME280;34064;44.942;0.008;2024-02-14T09:01:33;99612.06;;;10.58;66.25
47280;BME280;34064;44.942;0.008;2024-02-14T09:04:00;99592.56;;;10.72;66.23
47280;BME280;34064;44.942;0.008;2024-02-14T09:06:26;99598.69;;;10.87;66.87
47280;BME280;34064;44.942;0.008;2024-02-14T09:08:53;99593.31;;;11.02;66.46
47280;BME280;34064;44.942;0.008;2024-02-14T09:11:20;99592.19;;;11.19;66.39
47280;BME280;34064;44.942;0.008;2024-02-14T09:13:48;99587.22;;;11.27;66.75
47280;BME280;34064;44.942;0.008;2024-02-14T09:16:17;99585.84;;;11.34;66.52
47280;BME280;34064;44.942;0.008;2024-02-14T09:18:45;99585.13;;;11.45;66.50
47280;BME280;34064;44.942;0.008;2024-02-14T09:21:13;99581.63;;;11.58;66.63
47280;BME280;34064;44.942;0.008;2024-02-14T09:23:41;99563.97;;;11.69;66.34
47280;BME280;34064;44.942;0.008;2024-02-14T09:26:08;99566.72;;;11.81;66.23
47280;BME280;34064;44.942;0.008;2024-02-14T09:28:34;99557.38;;;12.01;66.01
47280;BME280;34064;44.942;0.008;2024-02-14T09:31:01;99556.53;;;12.13;65.66
47280;BME280;34064;44.942;0.008;2024-02-14T09:33:30;99552.44;;;12.21;65.65
47280;BME280;34064;44.942;0.008;2024-02-14T09:35:56;99551.16;;;12.26;65.85
47280;BME280;34064;44.942;0.008;2024-02-14T09:38:23;99547.09;;;12.33;65.77
47280;BME280;34064;44.942;0.008;2024-02-14T09:40:54;99539.28;;;12.43;65.73
47280;BME280;34064;44.942;0.008;2024-02-14T09:43:39;99539.56;;;12.52;65.53
47280;BME280;34064;44.942;0.008;2024-02-14T09:46:10;99535.78;;;12.67;65.46
47280;BME280;34064;44.942;0.008;2024-02-14T09:48:38;99523.00;;;12.84;65.18
47280;BME280;34064;44.942;0.008;2024-02-14T09:51:06;99519.31;;;12.98;65.13
47280;BME280;34064;44.942;0.008;2024-02-14T09:53:33;99513.16;;;13.08;65.29
47280;BME280;34064;44.942;0.008;2024-02-14T09:56:00;99507.84;;;13.20;64.84
47280;BME280;34064;44.942;0.008;2024-02-14T09:58:28;99496.03;;;13.35;64.43
47280;BME280;34064;44.942;0.008;2024-02-14T10:01:01;99499.06;;;13.42;64.37
47280;BME280;34064;44.942;0.008;2024-02-14T10:03:28;99495.09;;;13.48;64.20
47280;BME280;34064;44.942;0.008;2024-02-14T10:05:55;99485.66;;;13.55;63.89
47280;BME280;34064;44.942;0.008;2024-02-14T10:08:21;99483.22;;;13.63;63.90
47280;BME280;34064;44.942;0.008;2024-02-14T10:10:48;99480.31;;;13.78;63.59
47280;BME280;34064;44.942;0.008;2024-02-14T10:13:16;99479.34;;;13.90;63.34
47280;BME280;34064;44.942;0.008;2024-02-14T10:15:42;99477.50;;;14.02;63.10
47280;BME280;34064;44.942;0.008;2024-02-14T10:18:08;99481.25;;;14.11;62.99
47280;BME280;34064;44.942;0.008;2024-02-14T10:20:35;99479.41;;;14.23;63.10
47280;BME280;34064;44.942;0.008;2024-02-14T10:23:07;99473.91;;;14.35;62.66
47280;BME280;34064;44.942;0.008;2024-02-14T10:25:37;99483.41;;;14.40;62.65
47280;BME280;34064;44.942;0.008;2024-02-14T10:28:07;99479.34;;;14.45;62.63
47280;BME280;34064;44.942;0.008;2024-02-14T10:30:37;99467.06;;;14.54;62.01
47280;BME280;34064;44.942;0.008;2024-02-14T10:33:04;99468.25;;;14.61;61.72
47280;BME280;34064;44.942;0.008;2024-02-14T10:35:31;99461.56;;;14.67;61.89
47280;BME280;34064;44.942;0.008;2024-02-14T10:38:01;99453.06;;;14.73;61.89
47280;BME280;34064;44.942;0.008;2024-02-14T10:40:28;99461.13;;;14.83;61.83
47280;BME280;34064;44.942;0.008;2024-02-14T10:42:55;99447.56;;;14.96;61.70
47280;BME280;34064;44.942;0.008;2024-02-14T10:45:24;99441.78;;;15.12;61.39
47280;BME280;34064;44.942;0.008;2024-02-14T10:47:52;99436.34;;;15.23;61.41
47280;BME280;34064;44.942;0.008;2024-02-14T10:50:21;99424.56;;;15.36;61.16
47280;BME280;34064;44.942;0.008;2024-02-14T10:52:48;99424.63;;;15.46;60.78
47280;BME280;34064;44.942;0.008;2024-02-14T10:55:16;99420.75;;;15.59;60.55
47280;BME280;34064;44.942;0.008;2024-02-14T10:57:47;99418.81;;;15.71;60.43
47280;BME280;34064;44.942;0.008;2024-02-14T11:00:15;99409.56;;;15.85;60.14
47280;BME280;34064;44.942;0.008;2024-02-14T11:02:42;99397.06;;;15.96;59.28
47280;BME280;34064;44.942;0.008;2024-02-14T11:05:13;99405.25;;;16.04;59.41
47280;BME280;34064;44.942;0.008;2024-02-14T11:07:47;99391.88;;;16.14;59.18
47280;BME280;34064;44.942;0.008;2024-02-14T11:10:16;99403.44;;;16.14;59.21
47280;BME280;34064;44.942;0.008;2024-02-14T11:12:43;99397.22;;;16.24;58.21
47280;BME280;34064;44.942;0.008;2024-02-14T11:15:23;99391.03;;;16.33;58.45
47280;BME280;34064;44.942;0.008;2024-02-14T11:18:04;99379.91;;;16.47;58.23
47280;BME280;34064;44.942;0.008;2024-02-14T11:20:36;99379.06;;;16.57;57.98
47280;BME280;34064;44.942;0.008;2024-02-14T11:23:04;99371.13;;;16.65;58.01
47280;BME280;34064;44.942;0.008;2024-02-14T11:25:33;99371.81;;;16.77;57.48
47280;BME280;34064;44.942;0.008;2024-02-14T11:30:41;99363.91;;;16.95;56.90
47280;BME280;34064;44.942;0.008;2024-02-14T11:33:23;99348.59;;;17.05;56.57
47280;BME280;34064;44.942;0.008;2024-02-14T11:35:54;99343.63;;;17.20;56.73
47280;BME280;34064;44.942;0.008;2024-02-14T11:38:22;99338.22;;;17.30;56.35
47280;BME280;34064;44.942;0.008;2024-02-14T11:40:55;99337.34;;;17.39;56.09
47280;BME280;34064;44.942;0.008;2024-02-14T11:43:24;99328.38;;;17.49;55.83
47280;BME280;34064;44.942;0.008;2024-02-14T11:45:51;99318.88;;;17.54;56.14
47280;BME280;34064;44.942;0.008;2024-02-14T11:48:18;99316.75;;;17.58;55.52
47280;BME280;34064;44.942;0.008;2024-02-14T11:50:51;99303.41;;;17.66;55.71
47280;BME280;34064;44.942;0.008;2024-02-14T11:53:18;99307.69;;;17.77;55.97
47280;BME280;34064;44.942;0.008;2024-02-14T11:55:46;99297.44;;;17.90;55.48
47280;BME280;34064;44.942;0.008;2024-02-14T11:58:16;99282.41;;;17.98;54.99
47280;BME280;34064;44.942;0.008;2024-02-14T12:00:46;99283.66;;;18.03;55.22
47280;BME280;34064;44.942;0.008;2024-02-14T12:03:20;99275.34;;;18.15;54.96
47280;BME280;34064;44.942;0.008;2024-02-14T12:05:49;99276.03;;;18.17;54.65
47280;BME280;34064;44.942;0.008;2024-02-14T12:08:16;99268.75;;;18.27;54.47
47280;BME280;34064;44.942;0.008;2024-02-14T12:10:47;99267.41;;;18.31;54.50
47280;BME280;34064;44.942;0.008;2024-02-14T12:13:17;99264.78;;;18.39;54.45
47280;BME280;34064;44.942;0.008;2024-02-14T12:15:47;99259.16;;;18.51;54.18
47280;BME280;34064;44.942;0.008;2024-02-14T12:18:15;99249.81;;;18.63;54.03
47280;BME280;34064;44.942;0.008;2024-02-14T12:20:45;99246.47;;;18.69;54.01
47280;BME280;34064;44.942;0.008;2024-02-14T12:23:16;99236.75;;;18.77;53.72
47280;BME280;34064;44.942;0.008;2024-02-14T12:25:48;99221.03;;;18.90;53.59
47280;BME280;34064;44.942;0.008;2024-02-14T12:28:16;99220.91;;;19.00;52.98
47280;BME280;34064;44.942;0.008;2024-02-14T12:30:44;99212.03;;;19.08;52.24
47280;BME280;34064;44.942;0.008;2024-02-14T12:33:17;99213.06;;;19.15;52.83
47280;BME280;34064;44.942;0.008;2024-02-14T12:35:47;99206.88;;;19.23;52.59
47280;BME280;34064;44.942;0.008;2024-02-14T12:38:16;99213.47;;;19.28;53.08
47280;BME280;34064;44.942;0.008;2024-02-14T12:40:43;99203.72;;;19.36;52.67
47280;BME280;34064;44.942;0.008;2024-02-14T12:43:14;99200.22;;;19.43;52.95
47280;BME280;34064;44.942;0.008;2024-02-14T12:45:42;99198.22;;;19.54;52.59
47280;BME280;34064;44.942;0.008;2024-02-14T12:48:10;99195.53;;;19.62;52.65
47280;BME280;34064;44.942;0.008;2024-02-14T12:50:36;99184.41;;;19.73;52.24
47280;BME280;34064;44.942;0.008;2024-02-14T12:53:09;99170.59;;;19.85;51.77
47280;BME280;34064;44.942;0.008;2024-02-14T12:55:36;99167.09;;;19.92;51.99
47280;BME280;34064;44.942;0.008;2024-02-14T12:58:02;99172.66;;;19.99;51.95
47280;BME280;34064;44.942;0.008;2024-02-14T13:00:29;99161.00;;;20.15;51.37
47280;BME280;34064;44.942;0.008;2024-02-14T13:02:58;99148.19;;;20.25;50.44
47280;BME280;34064;44.942;0.008;2024-02-14T13:05:26;99143.09;;;20.31;50.65
47280;BME280;34064;44.942;0.008;2024-02-14T13:07:52;99135.50;;;20.34;49.82
47280;BME280;34064;44.942;0.008;2024-02-14T13:10:18;99145.28;;;20.35;49.93